createdAt,value
2022-10-02T00:00:54.338Z,0.00
2022-10-02T00:01:54.342Z,0.00
2022-10-02T00:02:54.311Z,0.00
2022-10-02T00:03:54.275Z,0.00
2022-10-02T00:04:54.242Z,0.00
2022-10-02T00:05:54.217Z,0.00
2022-10-02T00:06:54.193Z,0.00
2022-10-02T00:07:54.169Z,0.00
2022-10-02T00:08:54.147Z,0.00
2022-10-02T00:09:54.127Z,0.00
2022-10-02T00:10:54.098Z,0.00
2022-10-02T00:11:54.085Z,0.00
2022-10-02T00:12:54.054Z,0.00
2022-10-02T00:13:54.030Z,0.00
2022-10-02T00:14:54.007Z,0.00
2022-10-02T00:15:53.981Z,0.00
2022-10-02T00:16:54.110Z,0.00
2022-10-02T00:17:53.935Z,0.00
2022-10-02T00:18:53.934Z,0.00
2022-10-02T00:19:53.889Z,0.00
2022-10-02T00:20:53.870Z,0.00
2022-10-02T00:21:53.843Z,0.00
2022-10-02T00:22:53.821Z,0.00
2022-10-02T00:23:53.798Z,0.00
2022-10-02T00:24:53.772Z,0.00
2022-10-02T00:25:53.753Z,0.00
2022-10-02T00:26:53.726Z,0.00
2022-10-02T00:27:53.755Z,0.00
2022-10-02T00:28:53.677Z,0.00
2022-10-02T00:29:53.652Z,0.00
2022-10-02T00:30:53.630Z,0.00
2022-10-02T00:31:53.656Z,0.00
2022-10-02T00:32:53.583Z,0.00
2022-10-02T00:33:53.557Z,0.00
2022-10-02T00:34:53.560Z,0.00
2022-10-02T00:35:53.513Z,0.00
2022-10-02T00:36:53.491Z,0.00
2022-10-02T00:37:53.463Z,0.00
2022-10-02T00:38:53.442Z,0.00
2022-10-02T00:39:53.418Z,0.00
2022-10-02T00:40:53.395Z,0.00
2022-10-02T00:41:53.376Z,0.00
2022-10-02T00:42:53.353Z,0.00
2022-10-02T00:43:53.323Z,0.00
2022-10-02T00:44:53.299Z,0.00
2022-10-02T00:45:53.354Z,0.00
2022-10-02T00:46:53.255Z,0.00
2022-10-02T00:47:53.230Z,0.00
2022-10-02T00:48:53.210Z,0.00
2022-10-02T00:49:53.180Z,0.00
2022-10-02T00:50:53.181Z,0.00
2022-10-02T00:51:53.136Z,0.00
2022-10-02T00:52:53.112Z,0.00
2022-10-02T00:53:53.089Z,0.00
2022-10-02T00:54:53.064Z,0.00
2022-10-02T00:55:53.041Z,0.00
2022-10-02T00:56:53.020Z,0.00
2022-10-02T00:57:52.993Z,0.00
2022-10-02T00:58:52.974Z,0.00
2022-10-02T00:59:52.945Z,0.00
2022-10-02T01:00:52.958Z,0.00
2022-10-02T01:01:53.010Z,0.00
2022-10-02T01:02:52.877Z,0.00
2022-10-02T01:03:52.857Z,0.00
2022-10-02T01:04:52.830Z,0.00
2022-10-02T01:05:52.808Z,0.00
2022-10-02T01:06:52.803Z,0.00
2022-10-02T01:07:52.762Z,0.00
2022-10-02T01:08:52.741Z,0.00
2022-10-02T01:09:52.715Z,0.00
2022-10-02T01:10:52.688Z,0.00
2022-10-02T01:11:52.668Z,0.00
2022-10-02T01:12:52.645Z,0.00
2022-10-02T01:13:52.618Z,0.00
2022-10-02T01:14:52.595Z,0.00
2022-10-02T01:15:52.573Z,0.00
2022-10-02T01:16:52.579Z,0.00
2022-10-02T01:17:52.526Z,0.00
2022-10-02T01:18:52.500Z,0.00
2022-10-02T01:19:52.480Z,0.00
2022-10-02T01:20:52.452Z,0.00
2022-10-02T01:21:52.434Z,0.00
2022-10-02T01:22:52.426Z,0.00
2022-10-02T01:23:52.386Z,0.00
2022-10-02T01:24:52.358Z,0.00
2022-10-02T01:25:52.334Z,0.00
2022-10-02T01:26:52.315Z,0.00
2022-10-02T01:27:52.350Z,0.00
2022-10-02T01:28:52.268Z,0.00
2022-10-02T01:29:52.243Z,0.00
2022-10-02T01:30:52.217Z,0.00
2022-10-02T01:31:52.279Z,0.00
2022-10-02T01:32:52.171Z,0.00
2022-10-02T01:33:52.147Z,0.00
2022-10-02T01:34:52.123Z,0.00
2022-10-02T01:35:52.101Z,0.00
2022-10-02T01:36:52.077Z,0.00
2022-10-02T01:37:52.053Z,0.00
2022-10-02T01:38:52.052Z,0.00
2022-10-02T01:39:52.007Z,0.00
2022-10-02T01:40:51.983Z,0.00
2022-10-02T01:41:51.962Z,0.00
2022-10-02T01:42:51.938Z,0.00
2022-10-02T01:43:51.914Z,0.00
2022-10-02T01:44:51.889Z,0.00
2022-10-02T01:45:51.935Z,0.00
2022-10-02T01:46:51.842Z,0.00
2022-10-02T01:47:51.823Z,0.00
2022-10-02T01:48:51.795Z,0.00
2022-10-02T01:49:51.772Z,0.00
2022-10-02T01:50:51.748Z,0.00
2022-10-02T01:51:51.731Z,0.00
2022-10-02T01:52:51.705Z,0.00
2022-10-02T01:53:51.678Z,0.00
2022-10-02T01:54:51.675Z,0.00
2022-10-02T01:55:51.632Z,0.00
2022-10-02T01:56:51.609Z,0.00
2022-10-02T01:57:51.587Z,0.00
2022-10-02T01:58:51.564Z,0.00
2022-10-02T01:59:51.539Z,0.00
2022-10-02T02:00:51.611Z,0.00
2022-10-02T02:01:51.559Z,0.00
2022-10-02T02:02:51.480Z,0.00
2022-10-02T02:03:51.446Z,0.00
2022-10-02T02:04:51.423Z,0.00
2022-10-02T02:05:51.402Z,0.00
2022-10-02T02:06:51.374Z,0.00
2022-10-02T02:07:51.353Z,0.00
2022-10-02T02:08:51.331Z,0.00
2022-10-02T02:09:51.306Z,0.00
2022-10-02T02:10:51.300Z,0.00
2022-10-02T02:11:51.257Z,0.00
2022-10-02T02:12:51.246Z,0.00
2022-10-02T02:13:51.215Z,0.00
2022-10-02T02:14:51.193Z,0.00
2022-10-02T02:15:51.165Z,0.00
2022-10-02T02:16:51.168Z,0.00
2022-10-02T02:17:51.116Z,0.00
2022-10-02T02:18:51.096Z,0.00
2022-10-02T02:19:51.073Z,0.00
2022-10-02T02:20:51.047Z,0.00
2022-10-02T02:21:51.023Z,0.00
2022-10-02T02:22:51.002Z,0.00
2022-10-02T02:23:50.978Z,0.00
2022-10-02T02:24:50.952Z,0.00
2022-10-02T02:25:50.928Z,0.00
2022-10-02T02:26:50.927Z,0.00
2022-10-02T02:27:50.958Z,0.00
2022-10-02T02:28:50.862Z,0.00
2022-10-02T02:29:50.840Z,0.00
2022-10-02T02:30:50.812Z,0.00
2022-10-02T02:31:50.844Z,0.00
2022-10-02T02:32:50.770Z,0.00
2022-10-02T02:33:50.743Z,0.00
2022-10-02T02:34:50.719Z,0.00
2022-10-02T02:35:50.697Z,0.00
2022-10-02T02:36:50.671Z,0.00
2022-10-02T02:37:50.649Z,0.00
2022-10-02T02:38:50.630Z,0.00
2022-10-02T02:39:50.603Z,0.00
2022-10-02T02:40:50.580Z,0.00
2022-10-02T02:41:50.556Z,0.00
2022-10-02T02:42:50.553Z,0.00
2022-10-02T02:43:50.510Z,0.00
2022-10-02T02:44:50.488Z,0.00
2022-10-02T02:45:50.495Z,0.00
2022-10-02T02:46:50.449Z,0.00
2022-10-02T02:47:50.420Z,0.00
2022-10-02T02:48:50.394Z,0.00
2022-10-02T02:49:50.372Z,0.00
2022-10-02T02:50:50.348Z,0.00
2022-10-02T02:51:50.326Z,0.00
2022-10-02T02:52:50.299Z,0.00
2022-10-02T02:53:50.276Z,0.00
2022-10-02T02:54:50.257Z,0.00
2022-10-02T02:55:50.233Z,0.00
2022-10-02T02:56:50.208Z,0.00
2022-10-02T02:57:50.185Z,0.00
2022-10-02T02:58:50.202Z,0.00
2022-10-02T02:59:50.136Z,0.00
2022-10-02T03:00:50.184Z,0.00
2022-10-02T03:01:50.154Z,0.00
2022-10-02T03:02:50.068Z,0.00
2022-10-02T03:03:50.046Z,0.00
2022-10-02T03:04:50.027Z,0.00
2022-10-02T03:05:49.997Z,0.00
2022-10-02T03:06:49.973Z,0.00
2022-10-02T03:07:49.953Z,0.00
2022-10-02T03:08:49.927Z,0.00
2022-10-02T03:09:49.907Z,0.00
2022-10-02T03:10:49.885Z,0.00
2022-10-02T03:11:49.865Z,0.00
2022-10-02T03:12:49.835Z,0.00
2022-10-02T03:13:49.815Z,0.00
2022-10-02T03:14:49.809Z,0.00
2022-10-02T03:15:49.851Z,0.00
2022-10-02T03:16:49.748Z,0.00
2022-10-02T03:17:49.723Z,0.00
2022-10-02T03:18:49.695Z,0.00
2022-10-02T03:19:49.675Z,0.00
2022-10-02T03:20:49.650Z,0.00
2022-10-02T03:21:49.630Z,0.00
2022-10-02T03:22:49.605Z,0.00
2022-10-02T03:23:49.584Z,0.00
2022-10-02T03:24:49.561Z,0.00
2022-10-02T03:25:49.540Z,0.00
2022-10-02T03:26:49.513Z,0.00
2022-10-02T03:27:49.516Z,0.00
2022-10-02T03:28:57.222Z,0.00
2022-10-02T03:29:49.442Z,0.00
2022-10-02T03:30:49.438Z,0.00
2022-10-02T03:31:49.437Z,0.00
2022-10-02T03:32:49.373Z,0.00
2022-10-02T03:33:49.354Z,0.00
2022-10-02T03:34:49.327Z,0.00
2022-10-02T03:35:49.306Z,0.00
2022-10-02T03:36:49.282Z,0.00
2022-10-02T03:37:49.256Z,0.00
2022-10-02T03:38:57.028Z,0.00
2022-10-02T03:39:49.212Z,0.00
2022-10-02T03:40:49.189Z,0.00
2022-10-02T03:41:49.167Z,0.00
2022-10-02T03:42:49.148Z,0.00
2022-10-02T03:43:49.118Z,0.00
2022-10-02T03:44:49.097Z,0.00
2022-10-02T03:45:51.752Z,4.00
2022-10-02T03:46:49.170Z,0.00
2022-10-02T03:47:49.029Z,4.00
2022-10-02T03:48:49.004Z,4.00
2022-10-02T03:49:48.981Z,0.00
2022-10-02T03:50:48.956Z,4.00
2022-10-02T03:51:48.935Z,0.00
2022-10-02T03:52:48.911Z,0.00
2022-10-02T03:53:48.885Z,0.00
2022-10-02T03:54:48.862Z,0.00
2022-10-02T03:55:48.840Z,0.00
2022-10-02T03:56:48.821Z,0.00
2022-10-02T03:57:48.795Z,0.00
2022-10-02T03:58:48.772Z,0.00
2022-10-02T03:59:48.747Z,0.00
2022-10-02T04:00:48.724Z,0.00
2022-10-02T04:01:49.373Z,0.00
2022-10-02T04:02:48.696Z,0.00
2022-10-02T04:03:48.748Z,0.00
2022-10-02T04:04:48.634Z,0.00
2022-10-02T04:05:48.612Z,0.00
2022-10-02T04:06:48.913Z,0.00
2022-10-02T04:07:52.594Z,0.00
2022-10-02T04:08:48.541Z,0.00
2022-10-02T04:09:48.517Z,0.00
2022-10-02T04:10:48.498Z,0.00
2022-10-02T04:11:48.471Z,0.00
2022-10-02T04:12:48.445Z,0.00
2022-10-02T04:13:48.424Z,0.00
2022-10-02T04:14:48.400Z,0.00
2022-10-02T04:15:48.417Z,0.00
2022-10-02T04:16:48.357Z,0.00
2022-10-02T04:17:48.329Z,0.00
2022-10-02T04:18:48.325Z,0.00
2022-10-02T04:19:48.288Z,0.00
2022-10-02T04:20:48.259Z,0.00
2022-10-02T04:21:48.237Z,0.00
2022-10-02T04:22:48.217Z,0.00
2022-10-02T04:23:48.196Z,0.00
2022-10-02T04:24:48.169Z,0.00
2022-10-02T04:25:48.154Z,0.00
2022-10-02T04:26:48.119Z,0.00
2022-10-02T04:27:48.201Z,0.00
2022-10-02T04:28:48.078Z,0.00
2022-10-02T04:29:48.051Z,0.00
2022-10-02T04:30:48.032Z,0.00
2022-10-02T04:31:48.091Z,0.00
2022-10-02T04:32:48.074Z,0.00
2022-10-02T04:33:47.959Z,0.00
2022-10-02T04:34:47.956Z,0.00
2022-10-02T04:35:47.912Z,0.00
2022-10-02T04:36:47.889Z,0.00
2022-10-02T04:37:47.989Z,0.00
2022-10-02T04:38:47.842Z,0.00
2022-10-02T04:39:47.819Z,0.00
2022-10-02T04:40:47.796Z,0.00
2022-10-02T04:41:47.775Z,0.00
2022-10-02T04:42:47.749Z,0.00
2022-10-02T04:43:47.727Z,0.00
2022-10-02T04:44:47.702Z,0.00
2022-10-02T04:45:47.752Z,0.00
2022-10-02T04:46:47.657Z,0.00
2022-10-02T04:47:47.632Z,0.00
2022-10-02T04:48:47.615Z,0.00
2022-10-02T04:49:47.589Z,0.00
2022-10-02T04:50:47.582Z,0.00
2022-10-02T04:51:47.540Z,0.00
2022-10-02T04:52:47.516Z,0.00
2022-10-02T04:53:47.502Z,0.00
2022-10-02T04:54:47.472Z,0.00
2022-10-02T04:55:47.448Z,0.00
2022-10-02T04:56:47.424Z,0.00
2022-10-02T04:57:47.401Z,0.00
2022-10-02T04:58:47.379Z,0.00
2022-10-02T04:59:47.354Z,0.00
2022-10-02T05:00:47.407Z,0.00
2022-10-02T05:01:47.376Z,0.00
2022-10-02T05:02:47.286Z,0.00
2022-10-02T05:03:47.262Z,0.00
2022-10-02T05:04:47.242Z,0.00
2022-10-02T05:05:47.220Z,0.00
2022-10-02T05:06:47.212Z,0.00
2022-10-02T05:07:47.171Z,0.00
2022-10-02T05:08:47.147Z,0.00
2022-10-02T05:09:47.123Z,0.00
2022-10-02T05:10:47.099Z,0.00
2022-10-02T05:11:47.075Z,0.00
2022-10-02T05:12:47.058Z,4.00
2022-10-02T05:13:47.026Z,0.00
2022-10-02T05:14:47.006Z,0.00
2022-10-02T05:15:47.006Z,0.00
2022-10-02T05:16:46.961Z,4.00
2022-10-02T05:17:46.934Z,0.00
2022-10-02T05:18:46.915Z,4.00
2022-10-02T05:19:46.888Z,4.00
2022-10-02T05:20:46.872Z,0.00
2022-10-02T05:21:46.847Z,4.00
2022-10-02T05:22:46.841Z,4.00
2022-10-02T05:23:46.800Z,4.00
2022-10-02T05:24:46.782Z,4.00
2022-10-02T05:25:46.755Z,4.00
2022-10-02T05:26:46.726Z,8.00
2022-10-02T05:27:46.750Z,4.00
2022-10-02T05:28:46.683Z,8.00
2022-10-02T05:29:46.656Z,8.00
2022-10-02T05:30:46.636Z,4.00
2022-10-02T05:31:46.675Z,8.00
2022-10-02T05:32:46.589Z,8.00
2022-10-02T05:33:48.509Z,8.00
2022-10-02T05:34:46.543Z,8.00
2022-10-02T05:35:46.522Z,8.00
2022-10-02T05:36:46.499Z,8.00
2022-10-02T05:37:46.471Z,12.00
2022-10-02T05:38:46.470Z,12.00
2022-10-02T05:39:46.424Z,12.00
2022-10-02T05:40:46.406Z,16.00
2022-10-02T05:41:46.380Z,16.00
2022-10-02T05:42:46.356Z,16.00
2022-10-02T05:43:46.334Z,20.00
2022-10-02T05:44:46.312Z,20.00
2022-10-02T05:45:46.285Z,20.00
2022-10-02T05:46:46.298Z,24.00
2022-10-02T05:47:46.244Z,20.00
2022-10-02T05:48:46.221Z,16.00
2022-10-02T05:49:46.196Z,20.00
2022-10-02T05:50:46.180Z,24.00
2022-10-02T05:51:46.150Z,24.00
2022-10-02T05:52:46.124Z,24.00
2022-10-02T05:53:46.105Z,20.00
2022-10-02T05:54:46.098Z,20.00
2022-10-02T05:55:46.055Z,24.00
2022-10-02T05:56:46.037Z,28.00
2022-10-02T05:57:46.009Z,28.00
2022-10-02T05:58:45.990Z,28.00
2022-10-02T05:59:45.970Z,32.00
2022-10-02T06:00:46.015Z,32.00
2022-10-02T06:01:45.967Z,36.00
2022-10-02T06:02:45.895Z,36.00
2022-10-02T06:03:45.872Z,32.00
2022-10-02T06:04:45.852Z,36.00
2022-10-02T06:05:45.825Z,40.00
2022-10-02T06:06:45.806Z,36.00
2022-10-02T06:07:45.788Z,28.00
2022-10-02T06:08:45.763Z,28.00
2022-10-02T06:09:45.737Z,24.00
2022-10-02T06:10:45.733Z,24.00
2022-10-02T06:11:45.688Z,24.00
2022-10-02T06:12:45.670Z,24.00
2022-10-02T06:13:45.644Z,28.00
2022-10-02T06:14:50.463Z,36.00
2022-10-02T06:15:45.595Z,40.00
2022-10-02T06:16:45.619Z,48.00
2022-10-02T06:17:45.553Z,52.00
2022-10-02T06:18:45.530Z,52.00
2022-10-02T06:19:45.506Z,40.00
2022-10-02T06:20:45.484Z,36.00
2022-10-02T06:21:45.459Z,32.00
2022-10-02T06:22:45.438Z,40.00
2022-10-02T06:23:45.415Z,40.00
2022-10-02T06:24:45.393Z,44.00
2022-10-02T06:25:45.369Z,52.00
2022-10-02T06:26:45.364Z,56.00
2022-10-02T06:27:45.333Z,84.00
2022-10-02T06:28:45.301Z,112.00
2022-10-02T06:29:45.276Z,120.00
2022-10-02T06:30:45.260Z,124.00
2022-10-02T06:31:45.307Z,124.00
2022-10-02T06:32:45.211Z,120.00
2022-10-02T06:33:45.190Z,124.00
2022-10-02T06:34:47.944Z,136.00
2022-10-02T06:35:45.144Z,140.00
2022-10-02T06:36:45.153Z,140.00
2022-10-02T06:37:45.105Z,140.00
2022-10-02T06:38:45.076Z,140.00
2022-10-02T06:39:45.054Z,136.00
2022-10-02T06:40:45.027Z,136.00
2022-10-02T06:41:45.025Z,148.00
2022-10-02T06:42:45.002Z,152.00
2022-10-02T06:43:44.962Z,148.00
2022-10-02T06:44:44.938Z,152.00
2022-10-02T06:45:44.962Z,152.00
2022-10-02T06:46:47.397Z,156.00
2022-10-02T06:47:44.870Z,180.00
2022-10-02T06:48:44.848Z,208.00
2022-10-02T06:49:44.823Z,204.00
2022-10-02T06:50:44.806Z,196.00
2022-10-02T06:51:44.782Z,196.00
2022-10-02T06:52:44.757Z,184.00
2022-10-02T06:53:44.736Z,168.00
2022-10-02T06:54:44.711Z,156.00
2022-10-02T06:55:44.690Z,152.00
2022-10-02T06:56:44.870Z,140.00
2022-10-02T06:57:44.645Z,136.00
2022-10-02T06:58:44.639Z,112.00
2022-10-02T06:59:44.594Z,104.00
2022-10-02T07:00:44.616Z,116.00
2022-10-02T07:01:44.590Z,120.00
2022-10-02T07:02:44.530Z,124.00
2022-10-02T07:03:44.502Z,124.00
2022-10-02T07:04:44.484Z,124.00
2022-10-02T07:05:44.466Z,116.00
2022-10-02T07:06:44.437Z,124.00
2022-10-02T07:07:44.415Z,128.00
2022-10-02T07:08:44.397Z,128.00
2022-10-02T07:09:44.370Z,140.00
2022-10-02T07:10:44.348Z,124.00
2022-10-02T07:11:44.328Z,128.00
2022-10-02T07:12:44.303Z,144.00
2022-10-02T07:13:44.281Z,144.00
2022-10-02T07:14:44.276Z,116.00
2022-10-02T07:15:44.242Z,104.00
2022-10-02T07:16:44.238Z,112.00
2022-10-02T07:17:44.190Z,128.00
2022-10-02T07:18:44.169Z,136.00
2022-10-02T07:19:44.140Z,136.00
2022-10-02T07:20:44.124Z,136.00
2022-10-02T07:21:44.102Z,144.00
2022-10-02T07:22:45.663Z,152.00
2022-10-02T07:23:44.051Z,148.00
2022-10-02T07:24:44.042Z,156.00
2022-10-02T07:25:44.004Z,164.00
2022-10-02T07:26:43.982Z,212.00
2022-10-02T07:27:43.960Z,248.00
2022-10-02T07:28:43.938Z,284.00
2022-10-02T07:29:43.912Z,228.00
2022-10-02T07:30:43.916Z,240.00
2022-10-02T07:31:44.018Z,264.00
2022-10-02T07:32:43.863Z,188.00
2022-10-02T07:33:43.822Z,212.00
2022-10-02T07:34:43.809Z,212.00
2022-10-02T07:35:43.786Z,228.00
2022-10-02T07:36:43.782Z,216.00
2022-10-02T07:37:43.733Z,244.00
2022-10-02T07:38:43.712Z,308.00
2022-10-02T07:39:43.688Z,320.00
2022-10-02T07:40:43.665Z,288.00
2022-10-02T07:41:43.644Z,280.00
2022-10-02T07:42:43.624Z,280.00
2022-10-02T07:43:43.603Z,268.00
2022-10-02T07:44:43.576Z,244.00
2022-10-02T07:45:43.636Z,260.00
2022-10-02T07:46:43.549Z,284.00
2022-10-02T07:47:43.507Z,292.00
2022-10-02T07:48:43.485Z,328.00
2022-10-02T07:49:43.460Z,356.00
2022-10-02T07:50:43.439Z,360.00
2022-10-02T07:51:43.416Z,348.00
2022-10-02T07:52:43.396Z,356.00
2022-10-02T07:53:43.370Z,340.00
2022-10-02T07:54:43.349Z,344.00
2022-10-02T07:55:43.332Z,360.00
2022-10-02T07:56:43.308Z,408.00
2022-10-02T07:57:43.284Z,428.00
2022-10-02T07:58:43.261Z,412.00
2022-10-02T07:59:43.237Z,420.00
2022-10-02T08:00:43.216Z,404.00
2022-10-02T08:01:43.216Z,404.00
2022-10-02T08:02:43.189Z,432.00
2022-10-02T08:03:43.147Z,556.00
2022-10-02T08:04:43.127Z,520.00
2022-10-02T08:05:43.102Z,496.00
2022-10-02T08:06:43.080Z,444.00
2022-10-02T08:07:43.055Z,428.00
2022-10-02T08:08:43.036Z,412.00
2022-10-02T08:09:43.011Z,404.00
2022-10-02T08:10:42.990Z,372.00
2022-10-02T08:11:47.271Z,360.00
2022-10-02T08:12:42.950Z,356.00
2022-10-02T08:13:42.921Z,348.00
2022-10-02T08:14:42.898Z,332.00
2022-10-02T08:15:42.879Z,328.00
2022-10-02T08:16:42.915Z,340.00
2022-10-02T08:17:42.834Z,356.00
2022-10-02T08:18:42.827Z,380.00
2022-10-02T08:19:42.787Z,404.00
2022-10-02T08:20:42.766Z,400.00
2022-10-02T08:21:42.945Z,384.00
2022-10-02T08:22:42.727Z,380.00
2022-10-02T08:23:42.697Z,360.00
2022-10-02T08:24:42.684Z,368.00
2022-10-02T08:25:42.651Z,372.00
2022-10-02T08:26:42.904Z,380.00
2022-10-02T08:27:42.609Z,388.00
2022-10-02T08:28:42.590Z,396.00
2022-10-02T08:29:42.563Z,416.00
2022-10-02T08:30:42.541Z,428.00
2022-10-02T08:31:42.643Z,464.00
2022-10-02T08:32:42.496Z,488.00
2022-10-02T08:33:42.519Z,504.00
2022-10-02T08:34:42.482Z,500.00
2022-10-02T08:35:42.432Z,480.00
2022-10-02T08:36:42.412Z,500.00
2022-10-02T08:37:42.389Z,356.00
2022-10-02T08:38:42.369Z,336.00
2022-10-02T08:39:42.344Z,340.00
2022-10-02T08:40:42.321Z,364.00
2022-10-02T08:41:42.293Z,448.00
2022-10-02T08:42:42.273Z,420.00
2022-10-02T08:43:42.249Z,520.00
2022-10-02T08:44:42.228Z,580.00
2022-10-02T08:45:42.235Z,552.00
2022-10-02T08:46:42.186Z,468.00
2022-10-02T08:47:42.165Z,728.00
2022-10-02T08:48:42.342Z,604.00
2022-10-02T08:49:42.118Z,592.00
2022-10-02T08:50:42.117Z,652.00
2022-10-02T08:51:42.074Z,648.00
2022-10-02T08:52:42.055Z,640.00
2022-10-02T08:53:42.030Z,644.00
2022-10-02T08:54:42.019Z,664.00
2022-10-02T08:55:42.009Z,628.00
2022-10-02T08:56:41.963Z,656.00
2022-10-02T08:57:41.937Z,508.00
2022-10-02T08:58:41.920Z,472.00
2022-10-02T08:59:41.896Z,508.00
2022-10-02T09:00:41.938Z,684.00
2022-10-02T09:01:41.856Z,648.00
2022-10-02T09:02:41.829Z,728.00
2022-10-02T09:03:41.807Z,484.00
2022-10-02T09:04:41.786Z,608.00
2022-10-02T09:05:41.762Z,404.00
2022-10-02T09:06:41.759Z,372.00
2022-10-02T09:07:41.720Z,408.00
2022-10-02T09:08:41.698Z,684.00
2022-10-02T09:09:41.674Z,680.00
2022-10-02T09:10:41.657Z,528.00
2022-10-02T09:11:41.631Z,448.00
2022-10-02T09:12:41.615Z,640.00
2022-10-02T09:13:41.589Z,700.00
2022-10-02T09:14:41.564Z,832.00
2022-10-02T09:15:41.540Z,776.00
2022-10-02T09:16:41.587Z,540.00
2022-10-02T09:17:41.496Z,760.00
2022-10-02T09:18:41.476Z,840.00
2022-10-02T09:19:41.454Z,816.00
2022-10-02T09:20:41.431Z,860.00
2022-10-02T09:21:41.409Z,1004.00
2022-10-02T09:22:41.422Z,884.00
2022-10-02T09:23:41.364Z,644.00
2022-10-02T09:24:41.345Z,380.00
2022-10-02T09:25:41.325Z,404.00
2022-10-02T09:26:41.298Z,456.00
2022-10-02T09:27:41.278Z,460.00
2022-10-02T09:28:41.257Z,492.00
2022-10-02T09:29:41.237Z,500.00
2022-10-02T09:30:41.209Z,932.00
2022-10-02T09:31:41.272Z,580.00
2022-10-02T09:32:41.167Z,536.00
2022-10-02T09:33:41.145Z,548.00
2022-10-02T09:34:41.121Z,564.00
2022-10-02T09:35:41.105Z,496.00
2022-10-02T09:36:41.080Z,688.00
2022-10-02T09:37:41.060Z,648.00
2022-10-02T09:38:41.054Z,1224.00
2022-10-02T09:39:41.016Z,724.00
2022-10-02T09:40:40.991Z,1080.00
2022-10-02T09:41:40.972Z,932.00
2022-10-02T09:42:40.949Z,928.00
2022-10-02T09:43:40.925Z,1012.00
2022-10-02T09:44:40.905Z,496.00
2022-10-02T09:45:40.932Z,460.00
2022-10-02T09:46:40.860Z,540.00
2022-10-02T09:47:40.839Z,584.00
2022-10-02T09:48:40.817Z,792.00
2022-10-02T09:49:40.793Z,584.00
2022-10-02T09:50:40.772Z,792.00
2022-10-02T09:51:40.754Z,576.00
2022-10-02T09:52:42.877Z,636.00
2022-10-02T09:53:40.707Z,528.00
2022-10-02T09:54:40.703Z,616.00
2022-10-02T09:55:40.664Z,528.00
2022-10-02T09:56:40.656Z,612.00
2022-10-02T09:57:40.623Z,472.00
2022-10-02T09:58:40.595Z,504.00
2022-10-02T09:59:40.577Z,628.00
2022-10-02T10:00:40.601Z,656.00
2022-10-02T10:01:40.865Z,696.00
2022-10-02T10:02:40.593Z,680.00
2022-10-02T10:03:40.487Z,628.00
2022-10-02T10:05:01.228Z,1332.00
2022-10-02T10:05:40.441Z,1104.00
2022-10-02T10:06:40.423Z,788.00
2022-10-02T10:07:40.402Z,876.00
2022-10-02T10:08:40.377Z,836.00
2022-10-02T10:09:40.358Z,1140.00
2022-10-02T10:10:40.355Z,860.00
2022-10-02T10:11:40.311Z,892.00
2022-10-02T10:12:40.290Z,1184.00
2022-10-02T10:13:40.285Z,1304.00
2022-10-02T10:14:40.246Z,1044.00
2022-10-02T10:15:40.232Z,572.00
2022-10-02T10:16:40.254Z,544.00
2022-10-02T10:17:40.187Z,536.00
2022-10-02T10:18:40.157Z,596.00
2022-10-02T10:19:40.137Z,952.00
2022-10-02T10:20:40.115Z,820.00
2022-10-02T10:21:40.542Z,548.00
2022-10-02T10:22:40.075Z,444.00
2022-10-02T10:23:40.050Z,424.00
2022-10-02T10:24:40.031Z,408.00
2022-10-02T10:25:40.026Z,408.00
2022-10-02T10:26:40.004Z,448.00
2022-10-02T10:27:39.969Z,1356.00
2022-10-02T10:28:39.940Z,1412.00
2022-10-02T10:29:39.936Z,536.00
2022-10-02T10:30:39.901Z,1264.00
2022-10-02T10:31:40.387Z,560.00
2022-10-02T10:32:39.852Z,624.00
2022-10-02T10:33:39.832Z,1444.00
2022-10-02T10:34:39.816Z,1400.00
2022-10-02T10:35:39.791Z,676.00
2022-10-02T10:36:43.310Z,1308.00
2022-10-02T10:37:39.742Z,1308.00
2022-10-02T10:38:39.720Z,1092.00
2022-10-02T10:39:39.705Z,588.00
2022-10-02T10:40:39.679Z,628.00
2022-10-02T10:41:40.031Z,1124.00
2022-10-02T10:43:03.057Z,1080.00
2022-10-02T10:43:39.613Z,1100.00
2022-10-02T10:44:39.591Z,864.00
2022-10-02T10:45:39.615Z,844.00
2022-10-02T10:46:39.546Z,956.00
2022-10-02T10:47:39.529Z,1036.00
2022-10-02T10:48:39.531Z,1056.00
2022-10-02T10:49:39.482Z,1172.00
2022-10-02T10:50:39.474Z,1092.00
2022-10-02T10:51:39.678Z,1100.00
2022-10-02T10:52:39.423Z,1128.00
2022-10-02T10:53:39.407Z,1204.00
2022-10-02T10:54:39.387Z,1424.00
2022-10-02T10:55:39.357Z,1332.00
2022-10-02T10:56:39.331Z,736.00
2022-10-02T10:57:39.310Z,1260.00
2022-10-02T10:58:39.306Z,1076.00
2022-10-02T10:59:39.267Z,1416.00
2022-10-02T11:00:39.304Z,1424.00
2022-10-02T11:01:39.831Z,1396.00
2022-10-02T11:02:39.283Z,1316.00
2022-10-02T11:03:39.180Z,1268.00
2022-10-02T11:04:39.159Z,616.00
2022-10-02T11:05:39.140Z,632.00
2022-10-02T11:06:42.842Z,1436.00
2022-10-02T11:07:39.094Z,748.00
2022-10-02T11:08:39.073Z,684.00
2022-10-02T11:09:39.051Z,704.00
2022-10-02T11:10:39.036Z,844.00
2022-10-02T11:11:39.630Z,648.00
2022-10-02T11:12:38.994Z,588.00
2022-10-02T11:13:38.968Z,576.00
2022-10-02T11:14:38.965Z,584.00
2022-10-02T11:15:38.922Z,612.00
2022-10-02T11:16:38.984Z,660.00
2022-10-02T11:17:38.879Z,680.00
2022-10-02T11:18:38.856Z,728.00
2022-10-02T11:19:38.842Z,816.00
2022-10-02T11:20:38.826Z,1260.00
2022-10-02T11:21:39.274Z,1088.00
2022-10-02T11:22:38.779Z,872.00
2022-10-02T11:23:38.763Z,932.00
2022-10-02T11:24:38.728Z,1040.00
2022-10-02T11:25:38.707Z,1012.00
2022-10-02T11:26:38.684Z,872.00
2022-10-02T11:27:38.672Z,848.00
2022-10-02T11:28:38.642Z,852.00
2022-10-02T11:29:38.620Z,844.00
2022-10-02T11:30:41.690Z,748.00
2022-10-02T11:31:39.059Z,736.00
2022-10-02T11:32:38.556Z,756.00
2022-10-02T11:33:38.534Z,1064.00
2022-10-02T11:34:38.518Z,836.00
2022-10-02T11:35:38.496Z,824.00
2022-10-02T11:36:38.481Z,848.00
2022-10-02T11:37:38.448Z,988.00
2022-10-02T11:38:38.428Z,1196.00
2022-10-02T11:39:38.405Z,1356.00
2022-10-02T11:40:38.389Z,1088.00
2022-10-02T11:41:38.830Z,1048.00
2022-10-02T11:42:38.350Z,1132.00
2022-10-02T11:43:41.863Z,1124.00
2022-10-02T11:44:38.307Z,1076.00
2022-10-02T11:45:38.315Z,1544.00
2022-10-02T11:46:38.273Z,1812.00
2022-10-02T11:47:38.234Z,1640.00
2022-10-02T11:48:38.209Z,1540.00
2022-10-02T11:49:38.191Z,1552.00
2022-10-02T11:50:38.167Z,1452.00
2022-10-02T11:51:38.706Z,1308.00
2022-10-02T11:52:38.128Z,1172.00
2022-10-02T11:53:38.104Z,1044.00
2022-10-02T11:54:38.081Z,848.00
2022-10-02T11:55:38.065Z,732.00
2022-10-02T11:56:38.042Z,548.00
2022-10-02T11:57:38.023Z,496.00
2022-10-02T11:58:37.998Z,508.00
2022-10-02T11:59:37.976Z,480.00
2022-10-02T12:00:37.960Z,464.00
2022-10-02T12:01:38.445Z,404.00
2022-10-02T12:02:37.980Z,368.00
2022-10-02T12:03:37.894Z,356.00
2022-10-02T12:04:37.868Z,356.00
2022-10-02T12:05:37.851Z,364.00
2022-10-02T12:06:37.829Z,392.00
2022-10-02T12:07:37.810Z,456.00
2022-10-02T12:08:37.785Z,504.00
2022-10-02T12:09:37.783Z,552.00
2022-10-02T12:10:37.742Z,620.00
2022-10-02T12:11:37.966Z,640.00
2022-10-02T12:12:37.704Z,632.00
2022-10-02T12:13:37.684Z,636.00
2022-10-02T12:14:37.654Z,1012.00
2022-10-02T12:15:37.636Z,632.00
2022-10-02T12:16:37.684Z,556.00
2022-10-02T12:17:37.591Z,828.00
2022-10-02T12:18:37.604Z,1288.00
2022-10-02T12:19:37.550Z,1328.00
2022-10-02T12:20:37.530Z,1456.00
2022-10-02T12:21:37.745Z,1764.00
2022-10-02T12:22:37.483Z,1824.00
2022-10-02T12:23:37.465Z,1236.00
2022-10-02T12:24:37.439Z,932.00
2022-10-02T12:25:37.423Z,932.00
2022-10-02T12:26:37.397Z,852.00
2022-10-02T12:27:37.384Z,1764.00
2022-10-02T12:28:37.361Z,1392.00
2022-10-02T12:29:37.336Z,768.00
2022-10-02T12:30:37.312Z,1372.00
2022-10-02T12:31:37.678Z,864.00
2022-10-02T12:32:37.270Z,608.00
2022-10-02T12:33:37.247Z,648.00
2022-10-02T12:34:37.248Z,676.00
2022-10-02T12:35:37.206Z,724.00
2022-10-02T12:36:37.207Z,672.00
2022-10-02T12:37:37.163Z,672.00
2022-10-02T12:38:37.140Z,684.00
2022-10-02T12:39:37.122Z,636.00
2022-10-02T12:40:37.099Z,644.00
2022-10-02T12:41:37.323Z,596.00
2022-10-02T12:42:37.057Z,568.00
2022-10-02T12:43:37.040Z,468.00
2022-10-02T12:44:37.013Z,792.00
2022-10-02T12:45:37.110Z,404.00
2022-10-02T12:46:36.971Z,440.00
2022-10-02T12:47:36.956Z,524.00
2022-10-02T12:48:36.930Z,572.00
2022-10-02T12:49:36.909Z,572.00